Terminal Aerodrome Forecast
Issued by NWS Brownsville, TX

Home | Current Version | Previous Version | Text Only | Print | Product List | Glossary On
Versions: 1 2 3 4 5 6 7 8 9 10 11 12 13 14 15 16 17 18 19
000
FTUS44 KBRO 222330
TAFHRL
TAF
KHRL 222330Z 2300/2324 36005KT P6SM BKN015
     FM230300 36006KT P6SM OVC007
     FM230500 15005KT 2SM BR OVC003
      TEMPO 2309/2313 1/2SM FG VV002
     FM231500 16010KT 4SM BR BKN007
     FM231700 16016G22KT P6SM BKN015=

USA.gov is the U.S. government's official web portal to all federal, state and local government web resources and services.